createdAt,value
2019-02-23T00:02:33.979Z,54.00
2019-02-23T00:05:15.242Z,52.30
2019-02-23T00:07:55.907Z,50.30
2019-02-23T00:10:36.632Z,61.60
2019-02-23T00:13:19.507Z,51.07
2019-02-23T00:16:00.390Z,60.63
2019-02-23T00:18:41.782Z,57.00
2019-02-23T00:21:23.412Z,42.20
2019-02-23T00:24:05.476Z,53.43
2019-02-23T00:26:46.761Z,52.73
2019-02-23T00:29:28.232Z,64.60
2019-02-23T00:32:09.592Z,58.73
2019-02-23T00:34:51.245Z,45.30
2019-02-23T00:40:21.988Z,54.13
2019-02-23T00:43:03.148Z,66.13
2019-02-23T00:45:44.800Z,60.90
2019-02-23T00:48:25.762Z,53.90
2019-02-23T00:51:07.394Z,55.50
2019-02-23T00:53:48.503Z,56.00
2019-02-23T00:56:29.874Z,43.70
2019-02-23T00:59:13.622Z,53.77
2019-02-23T01:01:54.448Z,52.00
2019-02-23T01:07:40.178Z,66.80
2019-02-23T01:10:26.194Z,65.97
2019-02-23T01:15:52.048Z,63.67
2019-02-23T01:18:32.584Z,52.87
2019-02-23T01:21:13.268Z,54.37
2019-02-23T01:26:44.244Z,44.40
2019-02-23T01:29:25.089Z,57.63
2019-02-23T01:32:05.471Z,53.33
2019-02-23T01:34:46.694Z,56.20
2019-02-23T01:37:27.662Z,66.47
2019-02-23T01:40:08.567Z,54.10
2019-02-23T01:42:53.052Z,57.80
2019-02-23T01:45:42.149Z,53.90
2019-02-23T01:48:17.220Z,46.43
2019-02-23T01:50:58.285Z,50.23
2019-02-23T01:53:39.250Z,48.60
2019-02-23T01:56:19.902Z,52.73
2019-02-23T01:59:04.152Z,47.70
2019-02-23T02:01:45.041Z,52.57
2019-02-23T02:04:25.816Z,56.07
2019-02-23T02:07:06.905Z,51.30
2019-02-23T02:09:49.430Z,44.67
2019-02-23T02:12:29.955Z,42.30
2019-02-23T02:15:10.741Z,57.83
2019-02-23T02:20:35.763Z,54.80
2019-02-23T02:23:16.845Z,49.10
2019-02-23T02:25:57.333Z,44.13
2019-02-23T02:28:38.718Z,47.47
2019-02-23T02:31:19.620Z,48.00
2019-02-23T02:42:26.843Z,38.00
2019-02-23T02:47:52.574Z,34.13
2019-02-23T02:50:33.605Z,36.37
2019-02-23T02:53:14.356Z,27.37
2019-02-23T02:55:55.131Z,35.93
2019-02-23T02:58:36.509Z,33.60
2019-02-23T03:04:09.097Z,32.10
2019-02-23T03:06:50.474Z,32.00
2019-02-23T03:12:42.250Z,24.20
2019-02-23T03:15:26.686Z,30.10
2019-02-23T03:18:07.498Z,29.53
2019-02-23T03:20:50.174Z,25.97
2019-02-23T03:23:31.301Z,28.20
2019-02-23T03:26:12.833Z,25.77
2019-02-23T03:28:53.952Z,29.10
2019-02-23T03:31:35.461Z,27.47
2019-02-23T03:34:16.944Z,29.80
2019-02-23T03:36:57.439Z,32.43
2019-02-23T03:42:23.647Z,53.30
2019-02-23T03:45:04.871Z,33.80
2019-02-23T03:47:45.497Z,27.07
2019-02-23T03:50:32.901Z,33.53
2019-02-23T03:53:13.550Z,26.63
2019-02-23T03:58:38.805Z,31.57
2019-02-23T04:01:19.929Z,24.90
2019-02-23T04:04:01.126Z,23.30
2019-02-23T04:06:41.708Z,21.23
2019-02-23T04:12:08.574Z,26.00
2019-02-23T04:14:49.341Z,24.70
2019-02-23T04:20:14.700Z,23.80
2019-02-23T04:22:56.256Z,21.70
2019-02-23T04:25:37.421Z,22.33
2019-02-23T04:28:17.868Z,18.77
2019-02-23T04:30:59.988Z,25.43
2019-02-23T04:33:40.957Z,22.97
2019-02-23T04:36:22.373Z,28.03
2019-02-23T04:39:04.528Z,41.70
2019-02-23T04:41:46.942Z,26.33
2019-02-23T04:44:27.527Z,29.60
2019-02-23T04:47:08.137Z,23.60
2019-02-23T04:53:08.177Z,31.13
2019-02-23T04:55:48.763Z,20.80
2019-02-23T04:58:29.925Z,25.00
2019-02-23T05:01:10.367Z,25.73
2019-02-23T05:06:37.628Z,17.77
2019-02-23T05:12:10.098Z,28.87
2019-02-23T05:14:50.893Z,25.60
2019-02-23T05:17:32.145Z,23.73
2019-02-23T05:23:08.952Z,23.83
2019-02-23T05:25:49.808Z,29.87
2019-02-23T05:31:14.778Z,28.13
2019-02-23T05:33:55.822Z,19.47
2019-02-23T05:36:37.223Z,30.03
2019-02-23T05:42:05.099Z,20.13
2019-02-23T05:47:31.111Z,24.40
2019-02-23T05:50:12.450Z,30.37
2019-02-23T05:52:53.385Z,23.50
2019-02-23T05:55:34.434Z,21.07
2019-02-23T05:58:16.700Z,20.43
2019-02-23T06:03:42.303Z,22.40
2019-02-23T06:06:23.968Z,23.30
2019-02-23T06:12:12.239Z,27.40
2019-02-23T06:17:38.672Z,23.03
2019-02-23T06:20:20.053Z,18.30
2019-02-23T06:23:02.455Z,19.47
2019-02-23T06:25:43.132Z,12.83
2019-02-23T06:28:23.852Z,18.20
2019-02-23T06:31:04.435Z,16.13
2019-02-23T06:36:30.662Z,17.93
2019-02-23T06:39:12.208Z,17.83
2019-02-23T06:41:53.371Z,17.23
2019-02-23T06:44:34.028Z,16.23
2019-02-23T06:47:15.113Z,13.07
2019-02-23T06:52:45.403Z,17.73
2019-02-23T06:58:15.370Z,12.70
2019-02-23T07:00:56.099Z,13.97
2019-02-23T07:03:36.831Z,13.77
2019-02-23T07:06:18.244Z,22.33
2019-02-23T07:09:00.998Z,19.67
2019-02-23T07:11:41.738Z,15.03
2019-02-23T07:14:24.393Z,18.67
2019-02-23T07:17:05.452Z,12.93
2019-02-23T07:19:46.838Z,19.70
2019-02-23T07:25:12.723Z,14.60
2019-02-23T07:27:54.608Z,21.33
2019-02-23T07:30:35.050Z,18.70
2019-02-23T07:33:20.141Z,17.57
2019-02-23T07:35:59.070Z,21.30
2019-02-23T07:38:40.875Z,15.53
2019-02-23T07:41:22.407Z,12.77
2019-02-23T07:44:03.522Z,20.27
2019-02-23T07:46:44.771Z,18.87
2019-02-23T07:49:25.981Z,22.03
2019-02-23T07:52:07.711Z,22.10
2019-02-23T07:54:48.523Z,65.37
2019-02-23T08:00:22.824Z,21.17
2019-02-23T08:03:04.238Z,26.10
2019-02-23T08:05:45.150Z,18.67
2019-02-23T08:08:26.235Z,17.67
2019-02-23T08:11:07.582Z,20.63
2019-02-23T08:13:48.636Z,17.83
2019-02-23T08:16:30.186Z,14.83
2019-02-23T08:19:11.940Z,15.80
2019-02-23T08:21:53.251Z,14.53
2019-02-23T08:24:34.620Z,16.80
2019-02-23T08:33:31.987Z,18.60
2019-02-23T08:36:13.554Z,16.87
2019-02-23T08:38:54.061Z,16.67
2019-02-23T08:41:36.474Z,18.23
2019-02-23T08:44:17.882Z,21.67
2019-02-23T08:46:58.782Z,48.60
2019-02-23T08:52:27.412Z,40.87
2019-02-23T08:55:08.650Z,29.00
2019-02-23T08:57:50.527Z,18.33
2019-02-23T09:00:31.686Z,52.57
2019-02-23T09:03:12.382Z,37.43
2019-02-23T09:05:53.713Z,16.13
2019-02-23T09:08:35.004Z,24.53
2019-02-23T09:11:15.996Z,13.33
2019-02-23T09:13:57.257Z,15.93
2019-02-23T09:16:41.500Z,15.60
2019-02-23T09:19:22.917Z,20.27
2019-02-23T09:24:48.990Z,16.40
2019-02-23T09:27:32.275Z,14.30
2019-02-23T09:30:14.078Z,14.73
2019-02-23T09:32:54.999Z,19.17
2019-02-23T09:35:36.456Z,13.17
2019-02-23T09:38:17.480Z,16.07
2019-02-23T09:40:59.407Z,14.10
2019-02-23T09:43:41.926Z,14.10
2019-02-23T09:46:26.637Z,16.87
2019-02-23T09:49:07.640Z,16.23
2019-02-23T09:51:48.870Z,13.30
2019-02-23T09:54:30.735Z,15.37
2019-02-23T09:57:10.888Z,20.70
2019-02-23T09:59:55.219Z,11.57
2019-02-23T10:02:36.528Z,20.57
2019-02-23T10:11:18.470Z,13.50
2019-02-23T10:14:01.112Z,13.30
2019-02-23T10:16:42.196Z,13.70
2019-02-23T10:19:24.120Z,13.83
2019-02-23T10:22:05.365Z,8.73
2019-02-23T10:30:23.940Z,9.73
2019-02-23T10:33:04.688Z,9.07
2019-02-23T10:35:45.948Z,10.40
2019-02-23T10:38:27.223Z,8.23
2019-02-23T10:41:08.613Z,12.77
2019-02-23T10:43:50.257Z,10.87
2019-02-23T10:46:31.999Z,7.97
2019-02-23T10:52:06.229Z,8.60
2019-02-23T10:54:47.282Z,7.53
2019-02-23T10:57:28.575Z,6.80
2019-02-23T11:00:14.911Z,11.20
2019-02-23T11:02:55.954Z,7.67
2019-02-23T11:05:37.275Z,13.90
2019-02-23T11:08:18.414Z,6.67
2019-02-23T11:10:59.569Z,7.90
2019-02-23T11:16:27.047Z,10.97
2019-02-23T11:19:08.643Z,5.70
2019-02-23T11:21:49.965Z,10.73
2019-02-23T11:24:31.336Z,6.67
2019-02-23T11:27:13.760Z,9.13
2019-02-23T11:29:55.095Z,5.07
2019-02-23T11:32:36.079Z,9.33
2019-02-23T11:35:17.576Z,9.90
2019-02-23T11:37:58.643Z,14.00
2019-02-23T11:40:39.180Z,10.23
2019-02-23T11:43:20.341Z,8.30
2019-02-23T11:46:01.214Z,6.47
2019-02-23T11:48:45.117Z,7.20
2019-02-23T11:51:26.585Z,6.90
2019-02-23T11:54:26.981Z,6.30
2019-02-23T11:57:07.893Z,6.80
2019-02-23T11:59:49.021Z,10.70
2019-02-23T12:02:30.423Z,6.47
2019-02-23T12:05:11.900Z,4.73
2019-02-23T12:07:52.951Z,5.20
2019-02-23T12:10:33.907Z,5.20
2019-02-23T12:13:15.185Z,6.60
2019-02-23T12:15:56.475Z,5.67
2019-02-23T12:18:38.275Z,6.73
2019-02-23T12:24:06.513Z,4.47
2019-02-23T12:26:47.469Z,6.13
2019-02-23T12:29:28.371Z,9.47
2019-02-23T12:32:29.171Z,6.07
2019-02-23T12:35:10.628Z,7.20
2019-02-23T12:40:36.330Z,5.27
2019-02-23T12:43:21.492Z,5.33
2019-02-23T12:46:03.255Z,3.63
2019-02-23T12:52:05.099Z,6.40
2019-02-23T12:57:30.212Z,4.90
2019-02-23T13:00:11.916Z,9.37
2019-02-23T13:02:53.462Z,6.83
2019-02-23T13:05:39.093Z,8.47
2019-02-23T13:08:24.504Z,6.70
2019-02-23T13:11:06.242Z,6.87
2019-02-23T13:13:49.736Z,7.70
2019-02-23T13:19:13.433Z,6.33
2019-02-23T13:21:57.958Z,7.13
2019-02-23T13:24:39.272Z,5.07
2019-02-23T13:27:19.628Z,6.70
2019-02-23T13:30:00.914Z,6.00
2019-02-23T13:32:42.836Z,8.73
2019-02-23T13:35:23.800Z,12.37
2019-02-23T13:38:05.235Z,13.60
2019-02-23T13:40:49.137Z,6.17
2019-02-23T13:43:29.965Z,7.23
2019-02-23T13:46:11.860Z,8.57
2019-02-23T13:51:38.789Z,6.33
2019-02-23T13:54:19.450Z,7.77
2019-02-23T13:57:00.655Z,7.33
2019-02-23T14:02:31.235Z,7.67
2019-02-23T14:05:12.166Z,6.83
2019-02-23T14:07:53.421Z,7.50
2019-02-23T14:10:34.424Z,7.80
2019-02-23T14:13:15.659Z,7.80
2019-02-23T14:15:57.386Z,7.77
2019-02-23T14:18:38.686Z,3.90
2019-02-23T14:21:18.360Z,7.80
2019-02-23T14:24:00.042Z,8.87
2019-02-23T14:29:27.139Z,12.33
2019-02-23T14:32:08.970Z,24.90
2019-02-23T14:34:50.647Z,25.30
2019-02-23T14:37:32.601Z,42.63
2019-02-23T14:40:14.223Z,54.40
2019-02-23T14:45:34.383Z,17.47
2019-02-23T14:48:17.228Z,17.33
2019-02-23T14:50:58.575Z,18.20
2019-02-23T14:53:39.673Z,16.93
2019-02-23T14:56:20.347Z,13.13
2019-02-23T14:59:01.768Z,7.73
2019-02-23T15:01:43.487Z,8.60
2019-02-23T15:04:25.923Z,10.20
2019-02-23T15:07:12.289Z,11.87
2019-02-23T15:16:31.501Z,7.33
2019-02-23T15:19:13.029Z,8.00
2019-02-23T15:21:54.172Z,5.57
2019-02-23T15:24:34.825Z,7.00
2019-02-23T15:29:59.861Z,12.90
2019-02-23T15:32:40.731Z,8.17
2019-02-23T15:38:08.106Z,7.90
2019-02-23T15:40:49.151Z,8.93
2019-02-23T15:43:29.840Z,7.80
2019-02-23T15:46:10.539Z,9.03
2019-02-23T15:48:51.362Z,7.37
2019-02-23T15:51:34.598Z,8.40
2019-02-23T15:54:15.526Z,6.50
2019-02-23T15:57:00.102Z,9.67
2019-02-23T15:59:40.729Z,9.20
2019-02-23T16:02:21.977Z,12.73
2019-02-23T16:05:03.169Z,12.10
2019-02-23T16:07:44.127Z,12.43
2019-02-23T16:10:25.559Z,14.20
2019-02-23T16:13:06.412Z,9.10
2019-02-23T16:15:47.473Z,15.17
2019-02-23T16:18:29.246Z,9.40
2019-02-23T16:21:10.235Z,10.47
2019-02-23T16:23:53.449Z,9.00
2019-02-23T16:26:35.336Z,15.80
2019-02-23T16:29:16.939Z,14.33
2019-02-23T16:31:58.276Z,13.80
2019-02-23T16:34:41.692Z,10.10
2019-02-23T16:37:24.486Z,19.90
2019-02-23T16:40:07.375Z,14.10
2019-02-23T16:42:49.073Z,15.70
2019-02-23T16:45:30.835Z,18.73
2019-02-23T16:48:12.935Z,16.53
2019-02-23T16:50:54.577Z,20.63
2019-02-23T16:53:35.869Z,21.87
2019-02-23T16:56:17.466Z,20.07
2019-02-23T16:58:58.919Z,13.27
2019-02-23T17:01:40.198Z,13.93
2019-02-23T17:04:21.476Z,17.90
2019-02-23T17:07:03.523Z,17.63
2019-02-23T17:09:44.572Z,15.50
2019-02-23T17:12:26.414Z,30.97
2019-02-23T17:15:10.594Z,20.10
2019-02-23T17:17:50.712Z,21.40
2019-02-23T17:20:31.059Z,20.47
2019-02-23T17:23:14.353Z,28.70
2019-02-23T17:31:25.481Z,31.37
2019-02-23T17:34:06.249Z,31.40
2019-02-23T17:42:50.478Z,17.87
2019-02-23T17:45:31.686Z,22.65
2019-02-23T17:48:13.047Z,21.35
2019-02-23T17:56:46.289Z,25.93
2019-02-23T17:59:27.880Z,25.60
2019-02-23T18:02:09.820Z,23.23
2019-02-23T18:07:41.627Z,21.07
2019-02-23T18:13:12.062Z,21.80
2019-02-23T18:15:59.387Z,16.73
2019-02-23T18:18:41.469Z,19.90
2019-02-23T18:24:13.065Z,15.63
2019-02-23T18:30:10.878Z,15.50
2019-02-23T18:32:48.957Z,19.60
2019-02-23T18:35:29.904Z,24.27
2019-02-23T18:38:10.791Z,18.03
2019-02-23T18:40:51.782Z,24.93
2019-02-23T18:46:17.255Z,23.30
2019-02-23T18:48:57.981Z,16.50
2019-02-23T18:51:38.555Z,15.80
2019-02-23T18:54:19.017Z,15.70
2019-02-23T18:57:01.172Z,22.30
2019-02-23T18:59:42.557Z,28.73
2019-02-23T19:02:23.389Z,19.40
2019-02-23T19:05:04.284Z,20.03
2019-02-23T19:07:46.333Z,19.90
2019-02-23T19:10:27.442Z,19.70
2019-02-23T19:13:08.797Z,20.47
2019-02-23T19:15:51.047Z,16.23
2019-02-23T19:18:31.878Z,21.20
2019-02-23T19:21:12.912Z,22.50
2019-02-23T19:23:52.939Z,28.77
2019-02-23T19:26:38.213Z,15.07
2019-02-23T19:29:16.639Z,28.30
2019-02-23T19:31:57.860Z,24.07
2019-02-23T19:34:39.230Z,24.17
2019-02-23T19:37:20.297Z,22.63
2019-02-23T19:40:01.576Z,30.93
2019-02-23T19:42:44.275Z,20.77
2019-02-23T19:45:25.597Z,28.17
2019-02-23T19:48:07.075Z,17.37
2019-02-23T19:50:48.802Z,21.53
2019-02-23T19:53:29.924Z,29.77
2019-02-23T19:56:11.289Z,32.50
2019-02-23T19:58:53.489Z,34.10
2019-02-23T20:01:34.945Z,35.67
2019-02-23T20:07:00.210Z,27.80
2019-02-23T20:09:45.987Z,22.13
2019-02-23T20:12:28.212Z,21.50
2019-02-23T20:15:09.277Z,23.75
2019-02-23T20:17:53.891Z,25.00
2019-02-23T20:20:36.214Z,25.40
2019-02-23T20:23:17.578Z,26.23
2019-02-23T20:28:44.331Z,22.90
2019-02-23T20:34:12.816Z,34.70
2019-02-23T20:36:53.775Z,32.17
2019-02-23T20:39:36.998Z,31.57
2019-02-23T20:42:18.941Z,28.53
2019-02-23T20:45:00.891Z,32.50
2019-02-23T20:47:42.097Z,26.27
2019-02-23T20:50:26.688Z,33.43
2019-02-23T20:53:11.003Z,27.57
2019-02-23T20:55:54.869Z,25.20
2019-02-23T20:58:36.040Z,33.40
2019-02-23T21:01:20.668Z,27.80
2019-02-23T21:04:03.529Z,37.03
2019-02-23T21:06:44.620Z,35.03
2019-02-23T21:09:26.464Z,31.50
2019-02-23T21:12:08.069Z,40.10
2019-02-23T21:20:34.707Z,44.67
2019-02-23T21:23:15.675Z,49.80
2019-02-23T21:31:47.133Z,39.67
2019-02-23T21:37:14.679Z,35.40
2019-02-23T21:40:05.350Z,34.73
2019-02-23T21:51:47.787Z,36.13
2019-02-23T21:59:58.119Z,36.03
2019-02-23T22:02:38.871Z,32.20
2019-02-23T22:05:23.371Z,28.60
2019-02-23T22:08:04.871Z,21.80
2019-02-23T22:10:46.471Z,29.70
2019-02-23T22:13:27.957Z,28.00
2019-02-23T22:16:08.711Z,32.63
2019-02-23T22:18:49.627Z,30.03
2019-02-23T22:21:30.958Z,31.70
2019-02-23T22:27:00.809Z,24.90
2019-02-23T22:29:43.376Z,28.30
2019-02-23T22:32:24.869Z,34.80
2019-02-23T22:35:05.986Z,32.77
2019-02-23T22:37:48.027Z,33.73
2019-02-23T22:43:14.308Z,34.35
2019-02-23T22:45:56.076Z,26.77
2019-02-23T22:48:38.113Z,33.10
2019-02-23T22:54:03.697Z,36.13
2019-02-23T22:56:44.695Z,45.47
2019-02-23T22:59:25.977Z,31.20
2019-02-23T23:02:08.860Z,32.37
2019-02-23T23:04:50.285Z,30.63
2019-02-23T23:10:21.343Z,26.30
2019-02-23T23:15:52.589Z,37.37
2019-02-23T23:18:34.255Z,28.77
2019-02-23T23:24:01.794Z,38.10
2019-02-23T23:26:43.352Z,34.73
2019-02-23T23:29:26.354Z,31.63
2019-02-23T23:32:08.365Z,35.07
2019-02-23T23:34:50.702Z,34.67
2019-02-23T23:37:31.623Z,27.50
2019-02-23T23:40:12.974Z,41.60
2019-02-23T23:42:58.215Z,30.83
2019-02-23T23:45:36.585Z,27.60
2019-02-23T23:48:17.737Z,23.97
2019-02-23T23:51:05.216Z,31.20
2019-02-23T23:53:45.784Z,48.57
2019-02-23T23:56:26.835Z,32.77
2019-02-23T23:59:07.930Z,30.73
